POGODA: Poland

Lotnisko: Wroclaw Ii

METAR KOD: EPWR


METAR: EPWR 020400Z 36005KT 330V040 8000 RA FEW003 BKN005 BKN015 15/13 Q1016


BLOK
Pogoda METAR
020400Z
Dzien: 02, Godzina: 04:00 UTC.
36005KT
Wiatr z kierunku 360, o predkosci 9 km/h
330V040
Wiatr zmienny pomiedzy 330 i 040
8000
Widzialnosc pozioma 8000 m.
RA
deszcz
FEW003
1/8 - 2/8 pokrycia nieba, chmurami o podstawie: 90 metrow
BKN005
5/8 - 7/8 pokrycia nieba, chmurami o podstawie: 150 metrow
BKN015
5/8 - 7/8 pokrycia nieba, chmurami o podstawie: 450 metrow
15/13
Temperatura: powietrze 15°C, punkt rosy 13°C . Wilgotnosc wzgledna 87 %
Q1016
Cisnienie: 1016 hPa

Pogoda na innym lotnisku

Pogoda Gdansk-Rebiechowo WEATHER Poland  
Pogoda Katowice WEATHER Poland  
Pogoda Krakow WEATHER Poland  
Pogoda Poznan WEATHER Poland  
Pogoda Rzeszow-Jasionka WEATHER Poland  
Pogoda Szczecin WEATHER Poland  
Pogoda Warszawa-Okecie WEATHER Poland  
Pogoda Wroclaw Ii WEATHER Poland  

Pogoda w inny kraju

Strona startowa

(C) by GREGOR 2007
Ogłoszenia Towarzyskie